This is the latest recevied weather packets stored in our database for station/object OE5WWO. If no packets are shown the sender has not sent any weather packets the latest 10 day(s).
| Time | Temp. | Humidity | Pressure | Rain* | Wind** | Luminosity | Snow |
|---|---|---|---|---|---|---|---|
| 1777708846 | 16.67° C | 55% | 1024.5 hPa | 0 mm | - | - | - |
| 1777707960 | 16.67° C | 57% | 1024.7 hPa | 0 mm | - | - | - |
| 1777707636 | 16.11° C | 59% | 1024.7 hPa | 0 mm | - | - | - |
| 1777705840 | 14.44° C | 65% | 1024.9 hPa | 0 mm | - | - | - |
| 1777705541 | 14.44° C | 65% | 1025 hPa | 0 mm | - | - | - |
| 1777704940 | 13.89° C | 65% | 1025 hPa | 0 mm | - | - | - |
| 1777699540 | 8.33° C | 78% | 1025.6 hPa | 0 mm | - | - | - |
| 1777698340 | 7.78° C | 85% | 1025.5 hPa | 0 mm | - | - | - |
| 1777696539 | 6.11° C | 87% | 1025.3 hPa | 0 mm | - | - | - |
| 1777696253 | 6.11° C | 86% | 1025.2 hPa | 0 mm | - | - | - |
| 1777695349 | 6.11° C | 86% | 1025.4 hPa | 0 mm | - | - | - |
| 1777694741 | 6.11° C | 85% | 1025.3 hPa | 0 mm | - | - | - |
| 1777694143 | 6.11° C | 85% | 1025.3 hPa | 0 mm | - | - | - |
| 1777693548 | 6.11° C | 84% | 1025.2 hPa | 0 mm | - | - | - |
| 1777691768 | 6.11° C | 83% | 1025.2 hPa | 0 mm | - | - | - |
| 1777691141 | 6.67° C | 83% | 1025.3 hPa | 0 mm | - | - | - |
| 1777690539 | 6.67° C | 83% | 1025.4 hPa | 0 mm | - | - | - |
| 1777686040 | 7.78° C | 81% | 1025.5 hPa | 0 mm | - | - | - |
| 1777685449 | 7.78° C | 81% | 1025.5 hPa | 0 mm | - | - | - |
| 1777684551 | 7.78° C | 80% | 1025.6 hPa | 0 mm | - | - | - |
| 1777684236 | 7.78° C | 80% | 1025.7 hPa | 0 mm | - | - | - |
| 1777683937 | 8.33° C | 79% | 1025.8 hPa | 0 mm | - | - | - |
| 1777682440 | 8.33° C | 79% | 1025.8 hPa | 0 mm | - | - | - |
| 1777682136 | 8.33° C | 79% | 1025.9 hPa | 0 mm | - | - | - |
| 1777681535 | 8.33° C | 78% | 1025.9 hPa | 0 mm | - | - | - |
* Rain latest hour (hover to see other rain measurements)
** Current wind speed in m/s (hover to see current wind gust speed)